ETHC

Details ICAO ETHC (ZCN)
Name CELLE
Region Germany - Military
Timezone Europe/Berlin (UTC+1.0)
Plans Departing 6
Arriving 1
Stats Elevation 129 ft / 39 m (AMSL)
Location 52.591198° 10.022134°
Runways 1
Magnetic Variation 2.784° E
Sunrise 2017-12-16 07:27:00 UTC / 2017-12-16 08:27:00 Local
Sunset 2017-12-16 15:06:50 UTC / 2017-12-16 16:06:50 Local
Advertisement - Login to hide

Runways

ID Width Length Bearing (true) Bearing (mag) Surface Threshold Offset Overrun Length
08 148 ft / 45 m 5,989 ft / 1,825 m 80.71° 77.93° Asphalt 0 ft / 0 m 0 ft / 0 m
26 148 ft / 45 m 5,989 ft / 1,825 m 260.73° 257.95° Asphalt 0 ft / 0 m 994 ft / 303 m

Map

Weather


0- 5 10 15 20 25 30 35+ Temperature / ° C

Clouds and Precipitation
Forecast for 2017-12-16 12:00 UTC. Updated 2 hours ago

Ground ~20,000 ft ~40,000 ft Winds

METAR

ETHC 160820Z 24009KT 3500 BR BKN005 02/01 Q1005 YLO

TAF

Not found

Frequencies

Tower 122.10 MHz TWR
Approach 130.50 MHz RADAR
Warning: Do not use this data for real-world aviation or navigation. No guarantee of current accuracy is given.